createdAt,value
2016-11-24T00:00:18.968Z,0
2016-11-24T00:01:00.751Z,0
2016-11-24T00:03:21.294Z,0
2016-11-24T00:04:03.042Z,0
2016-11-24T00:04:44.579Z,0
2016-11-24T00:05:26.183Z,0
2016-11-24T00:06:07.896Z,0
2016-11-24T00:06:49.481Z,0
2016-11-24T00:07:31.179Z,0
2016-11-24T00:08:12.712Z,0
2016-11-24T00:08:54.344Z,0
2016-11-24T00:09:35.989Z,0
2016-11-24T00:10:17.716Z,0
2016-11-24T00:10:59.335Z,0
2016-11-24T00:11:40.997Z,0
2016-11-24T00:12:22.385Z,0
2016-11-24T00:13:04.257Z,0
2016-11-24T00:15:40.875Z,0
2016-11-24T00:16:22.498Z,0
2016-11-24T00:17:04.353Z,0
2016-11-24T00:17:45.981Z,0
2016-11-24T00:20:22.486Z,0
2016-11-24T00:21:04.116Z,0
2016-11-24T00:21:45.848Z,0
2016-11-24T00:22:27.508Z,0
2016-11-24T00:23:09.230Z,0
2016-11-24T00:23:50.821Z,0
2016-11-24T00:26:21.892Z,0
2016-11-24T00:27:03.520Z,0
2016-11-24T00:27:45.262Z,0
2016-11-24T00:28:27.054Z,0
2016-11-24T00:29:08.707Z,0
2016-11-24T00:29:50.454Z,0
2016-11-24T00:32:26.906Z,0
2016-11-24T00:33:08.568Z,0
2016-11-24T00:33:50.256Z,0
2016-11-24T00:34:32.012Z,0
2016-11-24T00:35:13.684Z,0
2016-11-24T00:35:55.419Z,0
2016-11-24T00:36:37.099Z,0
2016-11-24T00:38:37.152Z,0
2016-11-24T00:39:18.984Z,0
2016-11-24T00:40:00.564Z,0
2016-11-24T00:42:36.965Z,0
2016-11-24T00:43:18.627Z,0
2016-11-24T00:44:00.317Z,0
2016-11-24T00:44:42.063Z,0
2016-11-24T00:45:23.642Z,0
2016-11-24T00:46:05.335Z,0
2016-11-24T00:46:47.048Z,0
2016-11-24T00:47:28.758Z,0
2016-11-24T00:48:10.519Z,0
2016-11-24T00:48:52.240Z,0
2016-11-24T00:49:33.926Z,0
2016-11-24T00:50:15.622Z,0
2016-11-24T00:54:31.107Z,0
2016-11-24T00:55:12.792Z,0
2016-11-24T00:55:54.532Z,0
2016-11-24T00:56:36.161Z,0
2016-11-24T00:57:17.944Z,0
2016-11-24T00:57:59.676Z,0
2016-11-24T00:58:41.269Z,0
2016-11-24T00:59:22.824Z,0
2016-11-24T01:00:04.422Z,0
2016-11-24T01:00:45.939Z,0
2016-11-24T01:01:27.593Z,0
2016-11-24T01:02:09.260Z,0
2016-11-24T01:02:50.926Z,0
2016-11-24T01:03:32.582Z,0
2016-11-24T01:04:14.297Z,0
2016-11-24T01:04:56.069Z,0
2016-11-24T01:05:37.756Z,0
2016-11-24T01:06:19.346Z,0
2016-11-24T01:07:00.897Z,0
2016-11-24T01:09:21.642Z,0
2016-11-24T01:10:03.354Z,0
2016-11-24T01:10:44.973Z,0
2016-11-24T01:13:15.804Z,0
2016-11-24T01:15:31.113Z,0
2016-11-24T01:16:12.720Z,0
2016-11-24T01:16:54.411Z,0
2016-11-24T01:17:36.048Z,0
2016-11-24T01:18:17.586Z,0
2016-11-24T01:20:48.668Z,0
2016-11-24T01:21:30.410Z,0
2016-11-24T01:22:12.136Z,0
2016-11-24T01:24:32.767Z,0
2016-11-24T01:26:32.968Z,0
2016-11-24T01:27:14.717Z,0
2016-11-24T01:27:56.455Z,0
2016-11-24T01:30:27.389Z,0
2016-11-24T01:32:27.438Z,0
2016-11-24T01:33:09.182Z,0
2016-11-24T01:33:50.805Z,0
2016-11-24T01:34:32.658Z,0
2016-11-24T01:37:03.804Z,0
2016-11-24T01:37:45.531Z,0
2016-11-24T01:38:27.236Z,0
2016-11-24T01:39:08.876Z,0
2016-11-24T01:39:50.537Z,0
2016-11-24T01:40:32.163Z,0
2016-11-24T01:43:08.602Z,0
2016-11-24T01:43:50.351Z,0
2016-11-24T01:44:32.091Z,0
2016-11-24T01:45:13.769Z,0
2016-11-24T01:47:29.059Z,0
2016-11-24T01:48:10.727Z,0
2016-11-24T01:48:52.321Z,0
2016-11-24T01:49:34.050Z,0
2016-11-24T01:52:10.401Z,0
2016-11-24T01:52:52.087Z,0
2016-11-24T01:53:33.748Z,0
2016-11-24T01:54:15.485Z,0
2016-11-24T01:54:57.134Z,0
2016-11-24T01:55:38.815Z,0
2016-11-24T01:56:20.609Z,0
2016-11-24T01:58:51.671Z,0
2016-11-24T01:59:32.752Z,0
2016-11-24T02:00:13.295Z,0
2016-11-24T02:00:53.834Z,0
2016-11-24T02:01:34.375Z,0
2016-11-24T02:02:14.916Z,0
2016-11-24T02:02:55.457Z,0
2016-11-24T02:03:35.993Z,0
2016-11-24T02:04:16.533Z,0
2016-11-24T02:04:57.075Z,0
2016-11-24T02:05:37.612Z,0
2016-11-24T02:06:18.149Z,0
2016-11-24T02:06:58.683Z,0
2016-11-24T02:07:39.220Z,0
2016-11-24T02:08:19.757Z,0
2016-11-24T02:09:00.288Z,0
2016-11-24T02:09:40.833Z,0
2016-11-24T02:10:21.353Z,0
2016-11-24T02:11:01.892Z,0
2016-11-24T02:11:42.428Z,0
2016-11-24T02:12:22.965Z,0
2016-11-24T02:13:03.503Z,0
2016-11-24T02:13:44.038Z,0
2016-11-24T02:14:24.575Z,0
2016-11-24T02:15:05.108Z,0
2016-11-24T02:15:45.642Z,0
2016-11-24T02:16:26.177Z,0
2016-11-24T02:17:06.716Z,0
2016-11-24T02:17:47.256Z,0
2016-11-24T02:18:27.792Z,0
2016-11-24T02:19:08.321Z,0
2016-11-24T02:19:48.860Z,0
2016-11-24T02:20:29.402Z,0
2016-11-24T02:21:09.940Z,0
2016-11-24T02:21:50.478Z,0
2016-11-24T02:22:31.018Z,0
2016-11-24T02:23:11.557Z,0
2016-11-24T02:23:52.089Z,0
2016-11-24T02:24:32.627Z,0
2016-11-24T02:25:13.167Z,0
2016-11-24T02:25:53.698Z,0
2016-11-24T02:26:34.241Z,0
2016-11-24T02:27:14.782Z,0
2016-11-24T02:27:55.309Z,0
2016-11-24T02:28:35.850Z,0
2016-11-24T02:29:16.389Z,0
2016-11-24T02:29:56.931Z,0
2016-11-24T02:30:37.470Z,0
2016-11-24T02:31:18.008Z,0
2016-11-24T02:31:58.543Z,0
2016-11-24T02:32:39.088Z,0
2016-11-24T02:33:19.630Z,0
2016-11-24T02:34:00.167Z,0
2016-11-24T02:34:40.705Z,0
2016-11-24T02:35:21.244Z,0
2016-11-24T02:36:01.778Z,0
2016-11-24T02:36:42.315Z,0
2016-11-24T02:37:22.855Z,0
2016-11-24T02:38:03.391Z,0
2016-11-24T02:38:43.932Z,0
2016-11-24T02:39:24.475Z,0
2016-11-24T02:40:05.010Z,0
2016-11-24T02:40:45.550Z,0
2016-11-24T02:41:26.088Z,0
2016-11-24T02:42:06.622Z,0
2016-11-24T02:42:47.157Z,0
2016-11-24T02:43:27.696Z,0
2016-11-24T02:44:08.238Z,0
2016-11-24T02:44:48.779Z,0
2016-11-24T02:47:18.285Z,0
2016-11-24T02:47:58.820Z,0
2016-11-24T02:48:39.358Z,0
2016-11-24T02:49:19.900Z,0
2016-11-24T02:50:00.430Z,0
2016-11-24T02:50:40.969Z,0
2016-11-24T02:51:21.508Z,0
2016-11-24T02:52:02.049Z,0
2016-11-24T02:52:42.586Z,0
2016-11-24T02:53:23.125Z,0
2016-11-24T02:54:03.663Z,0
2016-11-24T02:54:44.208Z,0
2016-11-24T02:55:24.734Z,0
2016-11-24T02:56:05.273Z,0
2016-11-24T02:56:45.812Z,0
2016-11-24T02:57:26.348Z,0
2016-11-24T02:58:06.889Z,0
2016-11-24T02:58:47.428Z,0
2016-11-24T02:59:27.989Z,0
2016-11-24T03:00:08.521Z,0
2016-11-24T03:00:49.062Z,0
2016-11-24T03:01:29.604Z,0
2016-11-24T03:02:10.137Z,0
2016-11-24T03:02:50.677Z,0
2016-11-24T03:03:31.218Z,0
2016-11-24T03:04:11.756Z,0
2016-11-24T03:04:52.295Z,0
2016-11-24T03:05:32.834Z,0
2016-11-24T03:06:13.365Z,0
2016-11-24T03:06:53.906Z,0
2016-11-24T03:07:34.445Z,0
2016-11-24T03:08:14.980Z,0
2016-11-24T03:08:55.521Z,0
2016-11-24T03:09:36.064Z,0
2016-11-24T03:10:16.603Z,0
2016-11-24T03:10:57.136Z,0
2016-11-24T03:11:37.686Z,0
2016-11-24T03:12:18.209Z,0
2016-11-24T03:12:58.746Z,0
2016-11-24T03:13:39.288Z,0
2016-11-24T03:14:19.828Z,0
2016-11-24T03:15:00.368Z,0
2016-11-24T03:15:40.907Z,0
2016-11-24T03:16:21.445Z,0
2016-11-24T03:17:01.985Z,0
2016-11-24T03:17:42.525Z,0
2016-11-24T03:18:23.058Z,0
2016-11-24T03:19:03.591Z,0
2016-11-24T03:19:44.130Z,0
2016-11-24T03:20:24.667Z,0
2016-11-24T03:21:05.214Z,0
2016-11-24T03:21:45.750Z,0
2016-11-24T03:22:26.293Z,0
2016-11-24T03:23:06.828Z,0
2016-11-24T03:23:47.369Z,0
2016-11-24T03:24:27.909Z,0
2016-11-24T03:25:08.446Z,0
2016-11-24T03:25:48.989Z,0
2016-11-24T03:26:29.516Z,0
2016-11-24T03:27:10.054Z,0
2016-11-24T03:27:50.596Z,0
2016-11-24T03:28:31.133Z,0
2016-11-24T03:29:11.669Z,0
2016-11-24T03:29:52.203Z,0
2016-11-24T03:30:32.744Z,0
2016-11-24T03:31:13.284Z,0
2016-11-24T03:31:53.822Z,0
2016-11-24T03:32:34.359Z,0
2016-11-24T03:33:14.892Z,0
2016-11-24T03:33:55.428Z,0
2016-11-24T03:34:35.967Z,0
2016-11-24T03:35:16.506Z,0
2016-11-24T03:35:57.047Z,0
2016-11-24T03:36:37.587Z,0
2016-11-24T03:37:18.129Z,0
2016-11-24T03:37:58.663Z,0
2016-11-24T03:38:39.208Z,0
2016-11-24T03:39:19.747Z,0
2016-11-24T03:40:00.283Z,0
2016-11-24T03:40:40.824Z,0
2016-11-24T03:41:21.360Z,0
2016-11-24T03:42:01.904Z,0
2016-11-24T03:42:42.445Z,0
2016-11-24T03:43:22.993Z,0
2016-11-24T03:44:03.531Z,0
2016-11-24T03:44:44.069Z,0
2016-11-24T03:45:24.611Z,0
2016-11-24T03:46:05.147Z,0
2016-11-24T03:46:45.688Z,0
2016-11-24T03:47:26.228Z,0
2016-11-24T03:48:06.767Z,0
2016-11-24T03:48:47.311Z,0
2016-11-24T03:49:27.850Z,0
2016-11-24T03:50:08.389Z,0
2016-11-24T03:50:48.924Z,0
2016-11-24T03:51:29.463Z,0
2016-11-24T03:52:10.006Z,0
2016-11-24T03:52:50.538Z,0
2016-11-24T03:53:31.075Z,0
2016-11-24T03:54:11.616Z,0
2016-11-24T03:54:52.156Z,0
2016-11-24T03:55:32.693Z,0
2016-11-24T03:56:13.229Z,0
2016-11-24T03:56:53.768Z,0
2016-11-24T03:57:34.307Z,0
2016-11-24T03:58:14.842Z,0
2016-11-24T03:58:55.379Z,0
2016-11-24T03:59:35.922Z,0
2016-11-24T04:00:16.467Z,0
2016-11-24T04:00:56.991Z,0
2016-11-24T04:01:37.536Z,0
2016-11-24T04:02:18.073Z,0
2016-11-24T04:02:58.605Z,0
2016-11-24T04:03:39.145Z,0
2016-11-24T04:04:19.676Z,0
2016-11-24T04:05:00.221Z,0
2016-11-24T04:05:40.760Z,0
2016-11-24T04:06:21.299Z,0
2016-11-24T04:07:01.839Z,0
2016-11-24T04:07:42.382Z,0
2016-11-24T04:08:22.918Z,0
2016-11-24T04:09:03.447Z,0
2016-11-24T04:09:43.988Z,0
2016-11-24T04:10:24.527Z,0
2016-11-24T04:11:05.069Z,0
2016-11-24T04:11:45.607Z,0
2016-11-24T04:12:26.142Z,0
2016-11-24T04:13:06.683Z,0
2016-11-24T04:13:47.214Z,0
2016-11-24T04:14:27.746Z,0
2016-11-24T04:15:08.281Z,0
2016-11-24T04:15:48.809Z,0
2016-11-24T04:16:29.360Z,0
2016-11-24T04:17:09.897Z,0
2016-11-24T04:17:50.439Z,0
2016-11-24T04:18:30.975Z,0
2016-11-24T04:19:11.508Z,0
2016-11-24T04:19:52.048Z,0
2016-11-24T04:20:32.583Z,0
2016-11-24T04:21:13.125Z,0
2016-11-24T04:21:53.659Z,0
2016-11-24T04:22:34.201Z,0
2016-11-24T04:23:14.741Z,0
2016-11-24T04:23:55.271Z,0
2016-11-24T04:24:35.811Z,0
2016-11-24T04:25:16.348Z,0
2016-11-24T04:25:56.890Z,0
2016-11-24T04:26:37.445Z,0
2016-11-24T04:27:17.973Z,0
2016-11-24T04:27:58.505Z,0
2016-11-24T04:28:39.045Z,0
2016-11-24T04:29:19.616Z,0
2016-11-24T04:30:00.155Z,0
2016-11-24T04:30:40.698Z,0
2016-11-24T04:31:21.232Z,0
2016-11-24T04:32:01.772Z,0
2016-11-24T04:32:42.310Z,0
2016-11-24T04:33:22.858Z,0
2016-11-24T04:34:03.398Z,0
2016-11-24T04:34:43.938Z,0
2016-11-24T04:35:24.476Z,0
2016-11-24T04:36:05.015Z,0
2016-11-24T04:36:45.558Z,0
2016-11-24T04:37:26.093Z,0
2016-11-24T04:38:06.635Z,0
2016-11-24T04:38:47.173Z,0
2016-11-24T04:39:27.840Z,0
2016-11-24T04:40:08.827Z,0
2016-11-24T04:40:49.357Z,0
2016-11-24T04:41:29.902Z,0
2016-11-24T04:42:10.596Z,0
2016-11-24T04:42:51.120Z,0
2016-11-24T04:43:31.656Z,0
2016-11-24T04:44:12.196Z,0
2016-11-24T04:44:52.834Z,0
2016-11-24T04:45:33.373Z,0
2016-11-24T04:46:13.904Z,0
2016-11-24T04:46:54.441Z,0
2016-11-24T04:47:34.991Z,0
2016-11-24T04:48:15.522Z,0
2016-11-24T04:48:56.060Z,0
2016-11-24T04:49:36.589Z,0
2016-11-24T04:50:17.132Z,0
2016-11-24T04:50:57.918Z,0
2016-11-24T04:51:38.463Z,0
2016-11-24T04:52:18.997Z,0
2016-11-24T04:52:59.721Z,0
2016-11-24T04:53:40.264Z,0
2016-11-24T04:54:20.810Z,0
2016-11-24T04:55:01.347Z,0
2016-11-24T04:55:41.881Z,0
2016-11-24T04:56:22.418Z,0
2016-11-24T04:57:02.955Z,0
2016-11-24T04:57:43.512Z,0
2016-11-24T04:58:24.050Z,0
2016-11-24T04:59:04.585Z,0
2016-11-24T04:59:45.165Z,0
2016-11-24T05:00:25.700Z,0
2016-11-24T05:01:06.238Z,0
2016-11-24T05:01:46.784Z,0
2016-11-24T05:02:27.329Z,0
2016-11-24T05:03:07.866Z,0
2016-11-24T05:03:48.408Z,0
2016-11-24T05:04:28.945Z,0
2016-11-24T05:05:09.486Z,0
2016-11-24T05:05:50.026Z,0
2016-11-24T05:06:30.567Z,0
2016-11-24T05:07:11.096Z,0
2016-11-24T05:07:51.640Z,0
2016-11-24T05:08:32.180Z,0
2016-11-24T05:09:12.735Z,0
2016-11-24T05:09:53.276Z,0
2016-11-24T05:10:33.822Z,0
2016-11-24T05:11:14.363Z,0
2016-11-24T05:11:54.892Z,0
2016-11-24T05:12:35.430Z,0
2016-11-24T05:13:15.972Z,0
2016-11-24T05:13:56.511Z,0
2016-11-24T05:14:37.046Z,0
2016-11-24T05:15:17.586Z,0
2016-11-24T05:15:58.126Z,0
2016-11-24T05:16:38.658Z,0
2016-11-24T05:17:19.193Z,0
2016-11-24T05:17:59.736Z,0
2016-11-24T05:18:40.280Z,0
2016-11-24T05:19:20.815Z,0
2016-11-24T05:20:01.350Z,0
2016-11-24T05:20:41.891Z,0
2016-11-24T05:21:22.429Z,0
2016-11-24T05:22:02.963Z,0
2016-11-24T05:22:43.508Z,0
2016-11-24T05:23:24.039Z,0
2016-11-24T05:24:04.580Z,0
2016-11-24T05:24:45.122Z,0
2016-11-24T05:25:25.661Z,0
2016-11-24T05:26:06.199Z,0
2016-11-24T05:26:46.740Z,0
2016-11-24T05:27:27.280Z,0
2016-11-24T05:28:07.813Z,0
2016-11-24T05:28:48.358Z,0
2016-11-24T05:29:28.900Z,0
2016-11-24T05:30:09.428Z,0
2016-11-24T05:30:49.973Z,0
2016-11-24T05:31:30.500Z,0
2016-11-24T05:32:11.040Z,0
2016-11-24T05:32:51.586Z,0
2016-11-24T05:33:32.136Z,0
2016-11-24T05:34:12.663Z,0
2016-11-24T05:34:53.200Z,0
2016-11-24T05:35:33.740Z,0
2016-11-24T05:36:14.281Z,0
2016-11-24T05:36:54.822Z,0
2016-11-24T05:37:35.364Z,0
2016-11-24T05:38:15.898Z,0
2016-11-24T05:38:56.437Z,0
2016-11-24T05:39:36.973Z,0
2016-11-24T05:40:17.513Z,0
2016-11-24T05:40:58.053Z,0
2016-11-24T05:41:38.593Z,0
2016-11-24T05:42:19.134Z,0
2016-11-24T05:42:59.677Z,0
2016-11-24T05:43:40.242Z,0
2016-11-24T05:44:20.785Z,0
2016-11-24T05:45:01.329Z,0
2016-11-24T05:45:41.876Z,0
2016-11-24T05:46:22.417Z,0
2016-11-24T05:47:02.962Z,0
2016-11-24T05:47:43.503Z,0
2016-11-24T05:48:24.037Z,0
2016-11-24T05:49:04.585Z,0
2016-11-24T05:49:45.126Z,0
2016-11-24T05:50:25.663Z,0
2016-11-24T05:51:06.198Z,0
2016-11-24T05:51:46.743Z,0
2016-11-24T05:52:27.282Z,0
2016-11-24T05:53:07.819Z,0
2016-11-24T05:53:48.354Z,0
2016-11-24T05:54:28.897Z,0
2016-11-24T05:55:09.437Z,0
2016-11-24T05:55:49.978Z,0
2016-11-24T05:56:30.519Z,0
2016-11-24T05:57:11.056Z,0
2016-11-24T05:57:51.598Z,0
2016-11-24T05:58:32.138Z,0
2016-11-24T05:59:12.678Z,0
2016-11-24T05:59:53.216Z,0
2016-11-24T06:00:33.763Z,0
2016-11-24T06:01:14.287Z,0
2016-11-24T06:01:54.823Z,0
2016-11-24T06:02:35.366Z,0
2016-11-24T06:03:15.907Z,0
2016-11-24T06:03:56.454Z,0
2016-11-24T06:04:36.997Z,0
2016-11-24T06:05:17.539Z,0
2016-11-24T06:05:58.075Z,0
2016-11-24T06:06:38.620Z,0
2016-11-24T06:07:19.152Z,0
2016-11-24T06:07:59.693Z,0
2016-11-24T06:08:40.233Z,0
2016-11-24T06:09:20.767Z,0
2016-11-24T06:10:01.311Z,0
2016-11-24T06:10:41.851Z,0
2016-11-24T06:11:22.404Z,0
2016-11-24T06:12:02.950Z,0
2016-11-24T06:12:43.490Z,0
2016-11-24T06:13:24.023Z,0
2016-11-24T06:14:04.558Z,0
2016-11-24T06:14:45.099Z,0
2016-11-24T06:15:25.635Z,0
2016-11-24T06:16:06.179Z,0
2016-11-24T06:16:46.715Z,0
2016-11-24T06:17:27.257Z,0
2016-11-24T06:18:07.797Z,0
2016-11-24T06:18:48.343Z,0
2016-11-24T06:19:28.881Z,0
2016-11-24T06:20:09.417Z,0
2016-11-24T06:20:49.951Z,0
2016-11-24T06:21:30.480Z,0
2016-11-24T06:22:11.023Z,0
2016-11-24T06:22:51.564Z,0
2016-11-24T06:23:32.109Z,0
2016-11-24T06:24:12.655Z,0
2016-11-24T06:24:53.201Z,0
2016-11-24T06:25:33.739Z,0
2016-11-24T06:26:14.302Z,0
2016-11-24T06:26:54.833Z,0
2016-11-24T06:27:35.367Z,0
2016-11-24T06:28:15.899Z,0
2016-11-24T06:28:56.437Z,0
2016-11-24T06:29:36.976Z,0
2016-11-24T06:30:17.515Z,0
2016-11-24T06:30:58.046Z,0
2016-11-24T06:31:38.574Z,0
2016-11-24T06:32:19.133Z,0
2016-11-24T06:32:59.629Z,0
2016-11-24T06:33:40.178Z,4
2016-11-24T06:34:20.717Z,4
2016-11-24T06:35:01.248Z,4
2016-11-24T06:35:41.807Z,0
2016-11-24T06:36:22.342Z,0
2016-11-24T06:37:02.877Z,4
2016-11-24T06:37:43.416Z,4
2016-11-24T06:38:23.962Z,4
2016-11-24T06:39:04.504Z,4
2016-11-24T06:39:45.044Z,4
2016-11-24T06:40:25.586Z,8
2016-11-24T06:41:06.124Z,4
2016-11-24T06:41:46.665Z,8
2016-11-24T06:42:27.201Z,8
2016-11-24T06:43:07.735Z,12
2016-11-24T06:43:48.268Z,8
2016-11-24T06:44:28.801Z,8
2016-11-24T06:45:09.338Z,12
2016-11-24T06:45:49.886Z,12
2016-11-24T06:46:30.486Z,16
2016-11-24T06:47:11.023Z,16
2016-11-24T06:47:51.557Z,16
2016-11-24T06:48:32.100Z,20
2016-11-24T06:49:12.630Z,20
2016-11-24T06:49:53.179Z,20
2016-11-24T06:50:33.723Z,24
2016-11-24T06:51:14.274Z,24
2016-11-24T06:51:54.811Z,24
2016-11-24T06:52:35.352Z,28
2016-11-24T06:53:15.878Z,32
2016-11-24T06:53:56.412Z,32
2016-11-24T06:54:36.952Z,36
2016-11-24T06:55:17.491Z,36
2016-11-24T06:55:58.019Z,40
2016-11-24T06:56:38.580Z,40
2016-11-24T06:57:19.121Z,40
2016-11-24T06:57:59.648Z,44
2016-11-24T06:58:40.197Z,48
2016-11-24T06:59:20.736Z,56
2016-11-24T07:00:01.269Z,60
2016-11-24T07:00:41.816Z,64
2016-11-24T07:01:22.358Z,68
2016-11-24T07:02:02.906Z,76
2016-11-24T07:02:43.440Z,80
2016-11-24T07:03:23.977Z,88
2016-11-24T07:04:04.502Z,96
2016-11-24T07:04:45.054Z,104
2016-11-24T07:05:25.584Z,108
2016-11-24T07:06:06.119Z,116
2016-11-24T07:06:46.663Z,124
2016-11-24T07:07:27.204Z,132
2016-11-24T07:08:07.744Z,136
2016-11-24T07:08:48.290Z,144
2016-11-24T07:09:28.829Z,152
2016-11-24T07:10:09.359Z,152
2016-11-24T07:10:49.908Z,160
2016-11-24T07:11:30.443Z,168
2016-11-24T07:12:10.982Z,176
2016-11-24T07:12:51.524Z,188
2016-11-24T07:13:32.075Z,200
2016-11-24T07:14:12.626Z,216
2016-11-24T07:14:53.172Z,228
2016-11-24T07:15:33.703Z,244
2016-11-24T07:16:14.252Z,264
2016-11-24T07:16:54.799Z,280
2016-11-24T07:17:35.338Z,296
2016-11-24T07:18:15.889Z,312
2016-11-24T07:18:56.420Z,324
2016-11-24T07:19:36.968Z,340
2016-11-24T07:20:17.498Z,356
2016-11-24T07:20:58.038Z,368
2016-11-24T07:21:38.580Z,384
2016-11-24T07:22:19.125Z,396
2016-11-24T07:22:59.667Z,416
2016-11-24T07:23:40.210Z,436
2016-11-24T07:24:20.759Z,460
2016-11-24T07:25:01.296Z,488
2016-11-24T07:25:41.846Z,516
2016-11-24T07:26:22.406Z,540
2016-11-24T07:27:02.946Z,556
2016-11-24T07:27:43.482Z,568
2016-11-24T07:28:24.018Z,584
2016-11-24T07:29:04.547Z,600
2016-11-24T07:29:45.093Z,616
2016-11-24T07:30:25.635Z,632
2016-11-24T07:31:06.175Z,644
2016-11-24T07:31:46.719Z,656
2016-11-24T07:32:27.258Z,660
2016-11-24T07:33:07.803Z,668
2016-11-24T07:33:48.348Z,680
2016-11-24T07:34:28.885Z,692
2016-11-24T07:35:09.415Z,700
2016-11-24T07:35:49.945Z,712
2016-11-24T07:36:30.492Z,724
2016-11-24T07:37:11.028Z,740
2016-11-24T07:37:51.569Z,756
2016-11-24T07:38:32.105Z,768
2016-11-24T07:39:12.640Z,792
2016-11-24T07:39:53.181Z,820
2016-11-24T07:40:33.710Z,844
2016-11-24T07:41:14.255Z,868
2016-11-24T07:41:54.796Z,892
2016-11-24T07:42:35.337Z,916
2016-11-24T07:43:15.869Z,940
2016-11-24T07:43:56.424Z,964
2016-11-24T07:44:36.961Z,984
2016-11-24T07:45:17.497Z,1012
2016-11-24T07:45:58.036Z,1040
2016-11-24T07:46:38.572Z,1076
2016-11-24T07:47:19.108Z,1112
2016-11-24T07:47:59.643Z,1152
2016-11-24T07:48:40.184Z,1188
2016-11-24T07:49:20.733Z,1232
2016-11-24T07:50:01.279Z,1272
2016-11-24T07:50:41.823Z,1308
2016-11-24T07:51:22.377Z,1340
2016-11-24T07:52:02.920Z,1376
2016-11-24T07:52:43.447Z,1396
2016-11-24T07:53:23.973Z,1396
2016-11-24T07:54:04.509Z,1392
2016-11-24T07:54:45.061Z,1400
2016-11-24T07:55:25.577Z,1412
2016-11-24T07:56:06.160Z,1432
2016-11-24T07:56:46.674Z,1456
2016-11-24T07:57:27.193Z,1480
2016-11-24T07:58:07.758Z,1512
2016-11-24T07:58:48.305Z,1540
2016-11-24T07:59:28.847Z,1572
2016-11-24T08:00:09.375Z,1596
2016-11-24T08:00:49.916Z,1624
2016-11-24T08:01:30.462Z,1648
2016-11-24T08:02:10.988Z,1668
2016-11-24T08:02:51.542Z,1692
2016-11-24T08:03:32.092Z,1708
2016-11-24T08:04:12.633Z,1732
2016-11-24T08:04:53.179Z,1768
2016-11-24T08:05:33.715Z,1820
2016-11-24T08:06:14.243Z,1864
2016-11-24T08:06:54.782Z,1900
2016-11-24T08:07:35.320Z,1936
2016-11-24T08:08:15.861Z,1980
2016-11-24T08:08:56.399Z,2024
2016-11-24T08:09:36.947Z,2076
2016-11-24T08:10:17.488Z,2132
2016-11-24T08:10:58.024Z,2180
2016-11-24T08:11:38.566Z,2216
2016-11-24T08:12:19.110Z,2252
2016-11-24T08:12:59.639Z,2284
2016-11-24T08:13:40.184Z,2320
2016-11-24T08:14:20.725Z,2360
2016-11-24T08:15:01.266Z,2404
2016-11-24T08:15:41.805Z,2440
2016-11-24T08:16:22.351Z,2464
2016-11-24T08:17:02.894Z,2456
2016-11-24T08:17:43.428Z,2432
2016-11-24T08:18:23.963Z,2408
2016-11-24T08:19:04.497Z,2380
2016-11-24T08:19:45.040Z,2356
2016-11-24T08:20:25.581Z,2316
2016-11-24T08:21:06.114Z,2268
2016-11-24T08:21:46.660Z,2216
2016-11-24T08:22:27.199Z,2168
2016-11-24T08:23:07.737Z,2132
2016-11-24T08:23:48.299Z,2100
2016-11-24T08:24:28.831Z,2092
2016-11-24T08:25:09.365Z,2100
2016-11-24T08:25:49.903Z,2116
2016-11-24T08:26:30.447Z,2124
2016-11-24T08:27:10.986Z,2136
2016-11-24T08:27:51.524Z,2168
2016-11-24T08:28:32.066Z,2208
2016-11-24T08:29:12.604Z,2252
2016-11-24T08:29:53.145Z,2284
2016-11-24T08:30:33.684Z,2304
2016-11-24T08:31:14.213Z,2308
2016-11-24T08:31:54.752Z,2328
2016-11-24T08:32:35.292Z,2328
2016-11-24T08:33:15.836Z,2308
2016-11-24T08:33:56.378Z,2304
2016-11-24T08:34:36.918Z,2336
2016-11-24T08:35:17.458Z,2416
2016-11-24T08:35:58.004Z,2564
2016-11-24T08:36:38.545Z,2756
2016-11-24T08:37:19.090Z,2928
2016-11-24T08:37:59.628Z,3036
2016-11-24T08:38:40.168Z,3100
2016-11-24T08:39:20.710Z,3184
2016-11-24T08:40:01.248Z,3224
2016-11-24T08:40:41.798Z,3220
2016-11-24T08:41:22.341Z,3100
2016-11-24T08:42:02.885Z,3032
2016-11-24T08:42:43.433Z,3044
2016-11-24T08:43:23.968Z,3448
2016-11-24T08:44:04.519Z,3384
2016-11-24T08:44:45.063Z,3104
2016-11-24T08:45:25.605Z,3040
2016-11-24T08:46:06.127Z,3780
2016-11-24T08:46:46.674Z,3532
2016-11-24T08:47:27.212Z,4040
2016-11-24T08:48:07.756Z,4008
2016-11-24T08:48:48.299Z,3616
2016-11-24T08:49:28.845Z,3452
2016-11-24T08:50:09.376Z,3040
2016-11-24T08:50:49.923Z,3124
2016-11-24T08:51:30.465Z,3548
2016-11-24T08:52:11.003Z,3496
2016-11-24T08:52:51.543Z,4252
2016-11-24T08:53:32.080Z,3984
2016-11-24T08:54:12.622Z,4440
2016-11-24T08:54:53.163Z,4060
2016-11-24T08:55:33.709Z,3556
2016-11-24T08:56:14.285Z,3764
2016-11-24T08:56:54.825Z,3656
2016-11-24T08:57:35.367Z,3472
2016-11-24T08:58:15.907Z,3452
2016-11-24T08:58:56.447Z,3460
2016-11-24T08:59:36.984Z,3484
2016-11-24T09:00:17.531Z,3544
2016-11-24T09:00:58.077Z,3648
2016-11-24T09:01:38.599Z,3744
2016-11-24T09:02:19.140Z,3808
2016-11-24T09:02:59.679Z,3892
2016-11-24T09:03:40.225Z,3948
2016-11-24T09:04:20.764Z,4004
2016-11-24T09:05:01.306Z,4128
2016-11-24T09:05:41.844Z,3836
2016-11-24T09:06:22.388Z,3952
2016-11-24T09:07:02.922Z,4652
2016-11-24T09:07:43.468Z,4544
2016-11-24T09:08:24.013Z,3960
2016-11-24T09:09:04.545Z,4044
2016-11-24T09:09:45.080Z,3696
2016-11-24T09:10:25.626Z,3552
2016-11-24T09:11:06.167Z,3668
2016-11-24T09:11:46.699Z,3584
2016-11-24T09:12:27.243Z,4048
2016-11-24T09:13:07.784Z,4800
2016-11-24T09:13:48.326Z,5232
2016-11-24T09:14:28.868Z,5308
2016-11-24T09:15:09.405Z,6136
2016-11-24T09:15:50.015Z,6408
2016-11-24T09:16:30.546Z,6644
2016-11-24T09:17:11.087Z,6684
2016-11-24T09:17:51.629Z,5772
2016-11-24T09:18:32.172Z,4424
2016-11-24T09:19:12.696Z,3996
2016-11-24T09:19:53.238Z,4048
2016-11-24T09:20:33.782Z,3948
2016-11-24T09:21:14.326Z,3852
2016-11-24T09:21:54.876Z,3784
2016-11-24T09:22:35.418Z,3904
2016-11-24T09:23:15.961Z,4172
2016-11-24T09:23:56.503Z,5480
2016-11-24T09:24:37.046Z,5892
2016-11-24T09:25:17.585Z,5564
2016-11-24T09:25:58.134Z,5692
2016-11-24T09:26:38.677Z,5476
2016-11-24T09:27:19.220Z,6888
2016-11-24T09:27:59.758Z,6592
2016-11-24T09:28:40.300Z,7440
2016-11-24T09:29:20.844Z,8060
2016-11-24T09:30:01.397Z,9312
2016-11-24T09:30:41.939Z,10528
2016-11-24T09:31:22.482Z,13044
2016-11-24T09:32:03.029Z,11556
2016-11-24T09:32:43.578Z,13252
2016-11-24T09:33:24.124Z,10712
2016-11-24T09:34:04.665Z,11804
2016-11-24T09:34:45.206Z,10664
2016-11-24T09:35:25.747Z,11252
2016-11-24T09:36:06.285Z,11736
2016-11-24T09:36:46.819Z,12500
2016-11-24T09:37:27.362Z,12864
2016-11-24T09:38:07.909Z,14496
2016-11-24T09:38:48.463Z,16320
2016-11-24T09:39:29.004Z,17792
2016-11-24T09:40:09.551Z,18112
2016-11-24T09:40:50.089Z,18432
2016-11-24T09:41:30.656Z,18432
2016-11-24T09:42:11.201Z,18240
2016-11-24T09:42:51.751Z,18752
2016-11-24T09:43:32.299Z,19232
2016-11-24T09:44:12.843Z,19616
2016-11-24T09:44:53.391Z,19872
2016-11-24T09:45:33.927Z,20160
2016-11-24T09:46:14.487Z,20128
2016-11-24T09:46:55.032Z,20384
2016-11-24T09:47:35.581Z,20640
2016-11-24T09:48:16.128Z,21152
2016-11-24T09:48:56.671Z,21216
2016-11-24T09:49:37.219Z,21440
2016-11-24T09:50:17.767Z,22016
2016-11-24T09:50:58.312Z,22080
2016-11-24T09:51:38.862Z,22080
2016-11-24T09:52:19.405Z,21728
2016-11-24T09:52:59.952Z,21696
2016-11-24T09:53:40.498Z,21504
2016-11-24T09:54:21.043Z,21664
2016-11-24T09:55:01.591Z,21792
2016-11-24T09:55:42.136Z,19712
2016-11-24T09:56:22.679Z,18176
2016-11-24T09:57:03.231Z,20256
2016-11-24T09:57:43.778Z,22240
2016-11-24T09:58:24.329Z,22336
2016-11-24T09:59:04.880Z,23264
2016-11-24T09:59:45.428Z,23616
2016-11-24T10:00:25.978Z,23456
2016-11-24T10:01:06.532Z,23328
2016-11-24T10:01:47.086Z,23104
2016-11-24T10:02:27.635Z,22912
2016-11-24T10:03:08.174Z,22816
2016-11-24T10:03:48.723Z,23232
2016-11-24T10:04:29.276Z,21472
2016-11-24T10:05:09.824Z,18944
2016-11-24T10:05:50.376Z,16256
2016-11-24T10:06:30.919Z,11884
2016-11-24T10:07:11.468Z,10008
2016-11-24T10:07:52.018Z,8220
2016-11-24T10:08:32.570Z,7184
2016-11-24T10:09:13.117Z,6936
2016-11-24T10:09:53.667Z,6480
2016-11-24T10:10:34.218Z,6140
2016-11-24T10:11:14.759Z,6072
2016-11-24T10:11:55.311Z,6244
2016-11-24T10:12:35.858Z,6708
2016-11-24T10:13:16.399Z,8176
2016-11-24T10:13:56.941Z,10164
2016-11-24T10:14:37.492Z,13824
2016-11-24T10:15:18.029Z,19776
2016-11-24T10:15:58.579Z,21216
2016-11-24T10:16:39.120Z,14064
2016-11-24T10:17:19.670Z,11072
2016-11-24T10:18:00.217Z,12244
2016-11-24T10:18:40.755Z,11668